createdAt,value
2022-12-01T00:02:23.189Z,40.97
2022-12-01T00:04:49.792Z,41.00
2022-12-01T00:07:16.274Z,41.83
2022-12-01T00:10:01.399Z,43.20
2022-12-01T00:12:29.608Z,42.20
2022-12-01T00:15:00.819Z,37.70
2022-12-01T00:17:30.384Z,43.67
2022-12-01T00:19:57.311Z,42.25
2022-12-01T00:22:23.790Z,39.20
2022-12-01T00:24:50.340Z,40.42
2022-12-01T00:27:16.846Z,42.75
2022-12-01T00:29:43.547Z,41.28
2022-12-01T00:32:10.102Z,40.80
2022-12-01T00:34:38.002Z,42.08
2022-12-01T00:37:05.466Z,38.83
2022-12-01T00:39:32.022Z,42.60
2022-12-01T00:41:58.553Z,38.97
2022-12-01T00:44:25.137Z,39.22
2022-12-01T00:46:51.712Z,38.42
2022-12-01T00:49:18.408Z,42.70
2022-12-01T00:51:45.047Z,42.08
2022-12-01T00:54:11.554Z,42.80
2022-12-01T00:56:38.042Z,39.80
2022-12-01T00:59:04.538Z,44.85
2022-12-01T01:01:31.215Z,42.28
2022-12-01T01:03:58.285Z,42.58
2022-12-01T01:06:24.809Z,50.05
2022-12-01T01:08:51.386Z,41.78
2022-12-01T01:11:17.877Z,49.33
2022-12-01T01:13:44.412Z,48.60
2022-12-01T01:16:17.832Z,45.50
2022-12-01T01:18:44.484Z,48.83
2022-12-01T01:21:13.791Z,45.10
2022-12-01T01:23:40.342Z,49.83
2022-12-01T01:26:12.822Z,49.20
2022-12-01T01:28:41.578Z,45.58
2022-12-01T01:31:10.235Z,49.00
2022-12-01T01:33:37.194Z,51.83
2022-12-01T01:36:04.693Z,48.75
2022-12-01T01:38:31.947Z,48.92
2022-12-01T01:40:58.760Z,46.28
2022-12-01T01:43:59.161Z,47.80
2022-12-01T01:46:30.851Z,49.38
2022-12-01T01:49:01.460Z,49.97
2022-12-01T01:51:35.735Z,44.03
2022-12-01T01:54:08.624Z,49.88
2022-12-01T01:56:36.559Z,46.60
2022-12-01T01:59:03.480Z,51.47
2022-12-01T02:01:31.221Z,50.45
2022-12-01T02:03:58.232Z,48.22
2022-12-01T02:06:24.775Z,50.90
2022-12-01T02:08:51.308Z,50.67
2022-12-01T02:11:48.935Z,53.05
2022-12-01T02:14:27.177Z,56.50
2022-12-01T02:17:02.078Z,53.63
2022-12-01T02:20:05.426Z,58.03
2022-12-01T02:23:20.061Z,55.28
2022-12-01T02:26:07.394Z,48.65
2022-12-01T02:28:56.717Z,61.13
2022-12-01T02:31:38.542Z,53.40
2022-12-01T02:34:21.743Z,61.45
2022-12-01T02:36:55.857Z,55.58
2022-12-01T02:39:29.527Z,58.75
2022-12-01T02:42:04.543Z,59.58
2022-12-01T02:44:40.730Z,58.10
2022-12-01T02:49:51.623Z,50.90
2022-12-01T02:52:18.874Z,57.95
2022-12-01T02:54:46.018Z,57.42
2022-12-01T02:57:13.589Z,57.85
2022-12-01T02:59:42.459Z,57.97
2022-12-01T03:02:18.115Z,54.03
2022-12-01T03:04:46.590Z,55.00
2022-12-01T03:07:35.560Z,57.15
2022-12-01T03:10:08.824Z,53.58
2022-12-01T03:12:35.284Z,52.13
2022-12-01T03:15:26.221Z,58.50
2022-12-01T03:18:14.738Z,54.50
2022-12-01T03:21:03.962Z,61.33
2022-12-01T03:23:33.858Z,52.05
2022-12-01T03:26:02.196Z,52.28
2022-12-01T03:28:31.817Z,57.38
2022-12-01T03:31:02.942Z,55.83
2022-12-01T03:33:44.220Z,64.32
2022-12-01T03:36:16.837Z,52.50
2022-12-01T03:38:45.781Z,60.53
2022-12-01T03:41:22.919Z,60.85
2022-12-01T03:43:56.316Z,61.80
2022-12-01T03:47:02.068Z,52.75
2022-12-01T03:49:29.098Z,53.30
2022-12-01T03:51:58.637Z,48.35
2022-12-01T03:55:03.700Z,62.33
2022-12-01T03:57:35.217Z,51.20
2022-12-01T04:00:02.130Z,53.33
2022-12-01T04:02:29.011Z,57.75
2022-12-01T04:04:55.603Z,63.45
2022-12-01T04:07:22.781Z,53.90
2022-12-01T04:09:49.972Z,58.67
2022-12-01T04:12:33.154Z,50.70
2022-12-01T04:15:05.913Z,49.75
2022-12-01T04:17:32.437Z,53.92
2022-12-01T04:19:58.895Z,48.72
2022-12-01T04:22:25.845Z,57.53
2022-12-01T04:24:52.966Z,56.70
2022-12-01T04:27:20.391Z,60.20
2022-12-01T04:29:47.337Z,59.97
2022-12-01T04:32:14.163Z,54.22
2022-12-01T04:34:40.733Z,56.45
2022-12-01T04:37:07.961Z,54.05
2022-12-01T04:39:34.654Z,55.70
2022-12-01T04:42:03.520Z,53.80
2022-12-01T04:44:34.524Z,50.10
2022-12-01T04:47:01.918Z,47.28
2022-12-01T04:49:28.566Z,48.65
2022-12-01T04:51:55.229Z,49.75
2022-12-01T04:54:22.409Z,50.28
2022-12-01T04:56:49.127Z,47.42
2022-12-01T04:59:15.833Z,47.83
2022-12-01T05:01:42.969Z,48.20
2022-12-01T05:04:12.378Z,53.35
2022-12-01T05:06:39.103Z,44.00
2022-12-01T05:09:06.231Z,46.22
2022-12-01T05:11:33.291Z,48.83
2022-12-01T05:14:00.074Z,47.10
2022-12-01T05:16:29.293Z,49.55
2022-12-01T05:19:16.457Z,51.03
2022-12-01T05:21:44.410Z,47.72
2022-12-01T05:24:12.076Z,45.85
2022-12-01T05:26:39.007Z,45.20
2022-12-01T05:29:05.698Z,44.35
2022-12-01T05:31:32.530Z,45.47
2022-12-01T05:33:59.089Z,46.58
2022-12-01T05:36:25.851Z,44.50
2022-12-01T05:38:52.363Z,47.05
2022-12-01T05:41:18.869Z,48.20
2022-12-01T05:43:45.412Z,52.78
2022-12-01T05:46:12.023Z,51.40
2022-12-01T05:48:38.521Z,46.95
2022-12-01T05:51:10.137Z,55.88
2022-12-01T05:53:36.738Z,48.88
2022-12-01T05:56:03.584Z,48.70
2022-12-01T05:58:30.196Z,47.95
2022-12-01T06:00:56.915Z,53.17
2022-12-01T06:03:23.405Z,44.83
2022-12-01T06:05:50.457Z,46.35
2022-12-01T06:08:17.026Z,47.22
2022-12-01T06:10:44.360Z,51.45
2022-12-01T06:13:10.854Z,46.28
2022-12-01T06:15:37.409Z,47.42
2022-12-01T06:18:04.034Z,45.97
2022-12-01T06:20:30.606Z,48.72
2022-12-01T06:22:57.062Z,46.78
2022-12-01T06:25:23.551Z,49.13
2022-12-01T06:27:50.417Z,46.13
2022-12-01T06:30:17.078Z,53.08
2022-12-01T06:32:43.561Z,60.13
2022-12-01T06:35:10.356Z,55.10
2022-12-01T06:37:36.823Z,59.42
2022-12-01T06:40:04.367Z,59.63
2022-12-01T06:42:32.344Z,57.65
2022-12-01T06:44:58.934Z,49.83
2022-12-01T06:47:25.512Z,57.22
2022-12-01T06:49:52.867Z,53.90
2022-12-01T06:52:19.367Z,59.63
2022-12-01T06:54:45.959Z,55.33
2022-12-01T06:57:12.654Z,57.20
2022-12-01T06:59:39.552Z,57.60
2022-12-01T07:02:06.620Z,60.33
2022-12-01T07:04:33.160Z,50.83
2022-12-01T07:06:59.669Z,56.42
2022-12-01T07:09:26.307Z,59.25
2022-12-01T07:11:52.771Z,56.33
2022-12-01T07:14:26.750Z,55.22
2022-12-01T07:16:53.576Z,57.00
2022-12-01T07:19:20.403Z,55.97
2022-12-01T07:21:47.432Z,68.68
2022-12-01T07:24:14.045Z,67.28
2022-12-01T07:26:41.549Z,57.47
2022-12-01T07:29:09.325Z,59.38
2022-12-01T07:31:38.149Z,62.55
2022-12-01T07:34:04.871Z,65.35
2022-12-01T07:36:31.554Z,61.20
2022-12-01T07:38:58.142Z,57.10
2022-12-01T07:41:24.720Z,63.53
2022-12-01T07:43:51.383Z,60.53
2022-12-01T07:46:24.027Z,68.50
2022-12-01T07:48:51.589Z,64.35
2022-12-01T07:51:18.377Z,68.10
2022-12-01T07:53:46.027Z,62.53
2022-12-01T07:56:12.853Z,59.15
2022-12-01T07:58:39.671Z,68.72
2022-12-01T08:01:14.089Z,67.43
2022-12-01T08:03:41.193Z,68.45
2022-12-01T08:06:08.445Z,68.63
2022-12-01T08:08:36.908Z,63.83
2022-12-01T08:11:06.200Z,68.15
2022-12-01T08:13:33.096Z,64.10
2022-12-01T08:15:59.682Z,70.10
2022-12-01T08:18:26.352Z,72.38
2022-12-01T08:20:57.261Z,70.63
2022-12-01T08:23:24.101Z,73.47
2022-12-01T08:25:52.441Z,66.90
2022-12-01T08:28:19.530Z,74.60
2022-12-01T08:30:46.263Z,77.35
2022-12-01T08:33:12.968Z,61.95
2022-12-01T08:35:39.575Z,67.47
2022-12-01T08:38:06.194Z,67.90
2022-12-01T08:40:32.650Z,66.50
2022-12-01T08:42:59.194Z,65.20
2022-12-01T08:45:25.912Z,58.10
2022-12-01T08:47:53.834Z,54.90
2022-12-01T08:50:20.301Z,54.30
2022-12-01T08:52:47.099Z,51.95
2022-12-01T08:55:13.597Z,47.53
2022-12-01T08:57:40.298Z,45.17
2022-12-01T09:00:07.716Z,48.33
2022-12-01T09:02:34.734Z,44.42
2022-12-01T09:05:01.436Z,41.30
2022-12-01T09:07:28.040Z,41.15
2022-12-01T09:09:54.626Z,36.03
2022-12-01T09:12:21.335Z,34.47
2022-12-01T09:14:49.626Z,34.38
2022-12-01T09:17:17.275Z,35.35
2022-12-01T09:19:44.568Z,32.05
2022-12-01T09:22:11.939Z,32.03
2022-12-01T09:24:38.763Z,32.90
2022-12-01T09:27:05.789Z,30.65
2022-12-01T09:29:32.989Z,29.92
2022-12-01T09:32:00.358Z,30.38
2022-12-01T09:34:27.929Z,30.05
2022-12-01T09:36:56.672Z,29.92
2022-12-01T09:39:23.290Z,28.95
2022-12-01T09:42:08.768Z,29.33
2022-12-01T09:44:46.158Z,29.52
2022-12-01T09:47:19.284Z,29.70
2022-12-01T09:49:58.211Z,29.73
2022-12-01T09:52:26.814Z,27.85
2022-12-01T09:54:55.295Z,28.42
2022-12-01T09:57:33.617Z,28.17
2022-12-01T10:00:02.440Z,28.45
2022-12-01T10:02:36.672Z,28.35
2022-12-01T10:05:14.508Z,29.00
2022-12-01T10:07:49.472Z,29.13
2022-12-01T10:10:48.310Z,29.02
2022-12-01T10:13:35.045Z,29.05
2022-12-01T10:16:12.876Z,28.27
2022-12-01T10:18:54.632Z,28.48
2022-12-01T10:21:58.168Z,29.50
2022-12-01T10:24:24.558Z,28.40
2022-12-01T10:27:27.546Z,29.73
2022-12-01T10:30:08.071Z,30.25
2022-12-01T10:32:34.620Z,28.80
2022-12-01T10:35:01.378Z,29.02
2022-12-01T10:37:29.047Z,27.67
2022-12-01T10:39:56.909Z,28.13
2022-12-01T10:42:39.029Z,29.15
2022-12-01T10:45:14.222Z,28.08
2022-12-01T10:50:27.617Z,28.27
2022-12-01T10:52:54.088Z,28.90
2022-12-01T10:55:23.370Z,28.00
2022-12-01T10:57:50.113Z,28.20
2022-12-01T11:00:58.630Z,30.58
2022-12-01T11:03:24.419Z,27.20
2022-12-01T11:05:53.326Z,28.60
2022-12-01T11:08:25.510Z,28.83
2022-12-01T11:10:52.313Z,28.08
2022-12-01T11:13:28.574Z,30.42
2022-12-01T11:16:00.409Z,27.92
2022-12-01T11:18:29.735Z,30.00
2022-12-01T11:21:06.848Z,29.55
2022-12-01T11:23:39.195Z,28.63
2022-12-01T11:26:11.676Z,28.80
2022-12-01T11:28:43.837Z,31.10
2022-12-01T11:31:11.305Z,30.58
2022-12-01T11:33:53.170Z,29.13
2022-12-01T11:36:42.761Z,28.10
2022-12-01T11:39:28.092Z,27.50
2022-12-01T11:42:01.412Z,26.85
2022-12-01T11:44:50.274Z,28.58
2022-12-01T11:47:23.596Z,29.40
2022-12-01T11:50:02.627Z,29.40
2022-12-01T11:52:36.979Z,27.13
2022-12-01T11:55:21.800Z,25.60
2022-12-01T11:57:51.471Z,25.55
2022-12-01T12:00:30.429Z,26.92
2022-12-01T12:03:16.244Z,24.02
2022-12-01T12:05:49.165Z,24.50
2022-12-01T12:08:21.678Z,25.00
2022-12-01T12:10:57.324Z,25.20
2022-12-01T12:13:40.532Z,24.45
2022-12-01T12:16:34.550Z,25.75
2022-12-01T12:19:13.176Z,24.58
2022-12-01T12:21:57.256Z,24.13
2022-12-01T12:24:30.226Z,22.85
2022-12-01T12:27:02.980Z,22.20
2022-12-01T12:29:52.156Z,22.52
2022-12-01T12:32:47.600Z,22.73
2022-12-01T12:35:23.255Z,24.58
2022-12-01T12:37:52.815Z,22.13
2022-12-01T12:40:34.551Z,23.02
2022-12-01T12:43:24.070Z,23.20
2022-12-01T12:46:12.477Z,21.48
2022-12-01T12:49:19.195Z,21.35
2022-12-01T12:51:50.332Z,20.65
2022-12-01T12:54:29.092Z,21.48
2022-12-01T12:57:00.982Z,19.80
2022-12-01T12:59:48.778Z,20.35
2022-12-01T13:02:23.869Z,20.02
2022-12-01T13:04:56.444Z,20.75
2022-12-01T13:07:38.045Z,20.38
2022-12-01T13:10:32.471Z,18.25
2022-12-01T13:13:12.079Z,18.33
2022-12-01T13:15:39.606Z,18.17
2022-12-01T13:18:16.241Z,18.30
2022-12-01T13:20:43.412Z,19.88
2022-12-01T13:23:15.124Z,20.20
2022-12-01T13:25:42.424Z,19.58
2022-12-01T13:28:25.562Z,19.92
2022-12-01T13:31:07.386Z,20.08
2022-12-01T13:33:35.047Z,21.08
2022-12-01T13:36:38.212Z,18.35
2022-12-01T13:38:59.176Z,14.77
2022-12-01T13:41:30.693Z,14.52
2022-12-01T13:44:20.016Z,14.60
2022-12-01T13:46:46.778Z,17.27
2022-12-01T13:49:39.916Z,17.50
2022-12-01T13:52:21.717Z,17.83
2022-12-01T13:55:07.429Z,17.80
2022-12-01T13:57:45.504Z,18.88
2022-12-01T14:00:25.643Z,20.35
2022-12-01T14:03:20.414Z,22.23
2022-12-01T14:05:53.339Z,22.83
2022-12-01T14:08:48.218Z,20.20
2022-12-01T14:11:20.541Z,21.08
2022-12-01T14:13:53.631Z,21.73
2022-12-01T14:16:20.785Z,21.55
2022-12-01T14:18:57.818Z,20.38
2022-12-01T14:22:03.336Z,20.73
2022-12-01T14:24:42.261Z,22.33
2022-12-01T14:27:11.893Z,22.40
2022-12-01T14:29:42.567Z,21.65
2022-12-01T14:32:09.274Z,20.63
2022-12-01T14:34:37.277Z,23.50
2022-12-01T14:37:18.908Z,22.45
2022-12-01T14:40:13.511Z,22.80
2022-12-01T14:43:01.700Z,23.05
2022-12-01T14:45:35.580Z,22.52
2022-12-01T14:48:04.822Z,22.52
2022-12-01T14:50:43.511Z,22.38
2022-12-01T14:53:23.813Z,23.33
2022-12-01T14:56:02.394Z,22.83
2022-12-01T14:58:30.794Z,23.30
2022-12-01T15:01:07.559Z,23.35
2022-12-01T15:03:41.523Z,23.27
2022-12-01T15:06:08.722Z,22.80
2022-12-01T15:08:43.528Z,23.85
2022-12-01T15:11:22.431Z,24.15
2022-12-01T15:13:52.024Z,24.13
2022-12-01T15:16:20.914Z,23.88
2022-12-01T15:18:47.858Z,24.42
2022-12-01T15:21:28.567Z,24.23
2022-12-01T15:24:05.244Z,24.17
2022-12-01T15:26:34.635Z,23.92
2022-12-01T15:29:15.630Z,23.40
2022-12-01T15:31:44.395Z,24.77
2022-12-01T15:34:23.842Z,23.65
2022-12-01T15:36:51.874Z,23.13
2022-12-01T15:39:20.958Z,23.80
2022-12-01T15:41:53.678Z,23.08
2022-12-01T15:44:27.985Z,22.73
2022-12-01T15:46:54.771Z,23.40
2022-12-01T15:49:30.068Z,22.08
2022-12-01T15:52:10.680Z,23.48
2022-12-01T15:54:37.921Z,23.30
2022-12-01T15:57:04.803Z,22.83
2022-12-01T15:59:41.881Z,22.77
2022-12-01T16:02:20.646Z,23.42
2022-12-01T16:04:48.079Z,20.83
2022-12-01T16:07:15.001Z,20.88
2022-12-01T16:09:58.431Z,21.58
2022-12-01T16:12:30.183Z,23.23
2022-12-01T16:15:10.012Z,21.63
2022-12-01T16:17:44.280Z,22.23
2022-12-01T16:20:18.603Z,22.50
2022-12-01T16:22:51.906Z,24.13
2022-12-01T16:25:33.968Z,23.15
2022-12-01T16:28:01.136Z,23.48
2022-12-01T16:30:32.639Z,23.15
2022-12-01T16:33:19.856Z,22.52
2022-12-01T16:35:46.468Z,23.17
2022-12-01T16:38:20.597Z,23.40
2022-12-01T16:40:48.910Z,25.27
2022-12-01T16:43:18.244Z,25.10
2022-12-01T16:45:46.113Z,24.25
2022-12-01T16:48:12.877Z,26.00
2022-12-01T16:50:39.789Z,24.88
2022-12-01T16:53:06.294Z,26.15
2022-12-01T16:55:35.881Z,25.27
2022-12-01T16:58:02.464Z,25.63
2022-12-01T17:00:29.730Z,26.25
2022-12-01T17:02:57.288Z,25.08
2022-12-01T17:05:23.924Z,26.50
2022-12-01T17:07:50.919Z,26.80
2022-12-01T17:10:17.800Z,26.75
2022-12-01T17:12:44.450Z,26.95
2022-12-01T17:15:11.273Z,26.08
2022-12-01T17:17:37.841Z,26.38
2022-12-01T17:20:05.736Z,25.90
2022-12-01T17:22:32.592Z,27.30
2022-12-01T17:24:59.473Z,25.23
2022-12-01T17:27:27.667Z,25.63
2022-12-01T17:29:54.847Z,26.88
2022-12-01T17:32:21.369Z,25.55
2022-12-01T17:34:48.406Z,24.85
2022-12-01T17:37:20.732Z,24.75
2022-12-01T17:39:47.729Z,25.33
2022-12-01T17:42:14.215Z,25.17
2022-12-01T17:44:40.691Z,24.10
2022-12-01T17:47:07.344Z,24.10
2022-12-01T17:49:35.626Z,24.55
2022-12-01T17:52:03.160Z,24.20
2022-12-01T17:54:29.677Z,25.17
2022-12-01T17:56:56.258Z,22.83
2022-12-01T17:59:22.976Z,26.38
2022-12-01T18:01:49.552Z,23.52
2022-12-01T18:04:16.085Z,25.98
2022-12-01T18:06:42.998Z,22.15
2022-12-01T18:09:09.610Z,24.13
2022-12-01T18:11:36.166Z,23.42
2022-12-01T18:14:02.673Z,22.02
2022-12-01T18:16:31.725Z,24.13
2022-12-01T18:18:59.396Z,23.58
2022-12-01T18:21:27.297Z,23.60
2022-12-01T18:23:59.788Z,22.92
2022-12-01T18:26:27.935Z,24.13
2022-12-01T18:29:06.953Z,25.20
2022-12-01T18:31:34.102Z,21.70
2022-12-01T18:34:04.414Z,22.40
2022-12-01T18:36:33.436Z,22.30
2022-12-01T18:39:01.053Z,25.42
2022-12-01T18:41:27.800Z,23.30
2022-12-01T18:43:54.451Z,26.80
2022-12-01T18:46:21.546Z,22.33
2022-12-01T18:48:53.611Z,20.65
2022-12-01T18:51:20.961Z,24.73
2022-12-01T18:53:47.835Z,36.83
2022-12-01T18:56:15.305Z,35.20
2022-12-01T18:58:42.453Z,29.23
2022-12-01T19:01:26.693Z,27.45
2022-12-01T19:03:55.124Z,28.95
2022-12-01T19:06:22.022Z,32.40
2022-12-01T19:08:48.583Z,30.92
2022-12-01T19:11:15.832Z,28.08
2022-12-01T19:13:42.469Z,29.05
2022-12-01T19:16:13.722Z,28.35
2022-12-01T19:18:40.773Z,42.90
2022-12-01T19:21:09.458Z,120.85
2022-12-01T19:23:36.171Z,144.60
2022-12-01T19:26:07.780Z,110.20
2022-12-01T19:28:35.340Z,66.13
2022-12-01T19:31:11.152Z,43.78
2022-12-01T19:33:37.853Z,36.78
2022-12-01T19:36:12.618Z,30.75
2022-12-01T19:38:39.733Z,29.92
2022-12-01T19:41:07.058Z,37.20
2022-12-01T19:43:34.559Z,40.33
2022-12-01T19:46:09.649Z,34.72
2022-12-01T19:51:03.335Z,25.83
2022-12-01T19:53:33.599Z,38.13
2022-12-01T19:56:03.182Z,31.27
2022-12-01T19:58:33.135Z,30.30
2022-12-01T20:01:16.537Z,30.55
2022-12-01T20:03:46.020Z,26.73
2022-12-01T20:06:19.290Z,28.00
2022-12-01T20:08:46.170Z,29.30
2022-12-01T20:11:13.098Z,32.97
2022-12-01T20:13:41.298Z,27.83
2022-12-01T20:16:19.759Z,27.27
2022-12-01T20:18:47.179Z,26.67
2022-12-01T20:21:17.694Z,26.35
2022-12-01T20:23:46.565Z,27.52
2022-12-01T20:26:14.241Z,26.08
2022-12-01T20:28:41.263Z,27.63
2022-12-01T20:31:14.034Z,25.85
2022-12-01T20:33:42.551Z,27.27
2022-12-01T20:36:09.733Z,26.73
2022-12-01T20:38:37.217Z,26.33
2022-12-01T20:41:05.016Z,26.90
2022-12-01T20:43:32.480Z,27.80
2022-12-01T20:45:59.411Z,24.17
2022-12-01T20:48:26.664Z,28.02
2022-12-01T20:50:53.609Z,31.83
2022-12-01T20:53:20.117Z,50.33
2022-12-01T20:55:46.681Z,38.30
2022-12-01T20:58:13.276Z,39.00
2022-12-01T21:00:44.280Z,39.88
2022-12-01T21:03:12.187Z,39.65
2022-12-01T21:05:43.366Z,37.97
2022-12-01T21:08:12.118Z,32.65
2022-12-01T21:10:42.608Z,29.23
2022-12-01T21:13:43.559Z,29.88
2022-12-01T21:16:16.141Z,28.10
2022-12-01T21:18:55.710Z,28.50
2022-12-01T21:21:25.288Z,28.13
2022-12-01T21:24:11.597Z,29.00
2022-12-01T21:26:39.505Z,30.98
2022-12-01T21:29:45.658Z,33.38
2022-12-01T21:32:18.382Z,32.85
2022-12-01T21:34:46.405Z,29.45
2022-12-01T21:37:33.369Z,29.77
2022-12-01T21:40:00.447Z,28.52
2022-12-01T21:42:29.057Z,29.48
2022-12-01T21:44:56.188Z,35.03
2022-12-01T21:47:24.960Z,43.85
2022-12-01T21:49:56.979Z,81.50
2022-12-01T21:52:30.298Z,58.20
2022-12-01T21:55:17.086Z,58.13
2022-12-01T21:57:43.714Z,54.35
2022-12-01T22:00:28.696Z,43.50
2022-12-01T22:03:10.523Z,34.22
2022-12-01T22:05:42.874Z,29.45
2022-12-01T22:08:12.447Z,27.77
2022-12-01T22:11:13.407Z,27.20
2022-12-01T22:13:42.950Z,26.33
2022-12-01T22:16:15.136Z,25.88
2022-12-01T22:18:44.736Z,26.02
2022-12-01T22:21:23.640Z,26.38
2022-12-01T22:23:59.647Z,25.92
2022-12-01T22:26:26.402Z,26.33
2022-12-01T22:28:56.299Z,26.27
2022-12-01T22:31:23.185Z,28.58
2022-12-01T22:34:01.617Z,26.58
2022-12-01T22:36:31.737Z,27.00
2022-12-01T22:38:58.804Z,26.73
2022-12-01T22:41:26.928Z,27.55
2022-12-01T22:43:57.315Z,26.40
2022-12-01T22:46:26.788Z,28.75
2022-12-01T22:48:57.167Z,27.17
2022-12-01T22:51:46.959Z,28.02
2022-12-01T22:54:16.434Z,27.83
2022-12-01T22:56:51.018Z,27.95
2022-12-01T22:59:21.594Z,27.80
2022-12-01T23:01:52.070Z,28.00
2022-12-01T23:04:33.034Z,27.40
2022-12-01T23:07:34.680Z,27.15
2022-12-01T23:10:22.807Z,29.95
2022-12-01T23:12:51.459Z,29.23
2022-12-01T23:15:36.579Z,28.88
2022-12-01T23:18:35.491Z,30.52
2022-12-01T23:21:02.371Z,31.05
2022-12-01T23:23:30.232Z,32.17
2022-12-01T23:25:57.450Z,31.77
2022-12-01T23:28:24.360Z,35.70
2022-12-01T23:30:54.284Z,32.35
2022-12-01T23:33:23.413Z,34.25
2022-12-01T23:35:55.846Z,34.33
2022-12-01T23:38:37.624Z,34.10
2022-12-01T23:41:37.321Z,35.42
2022-12-01T23:44:21.349Z,33.75
2022-12-01T23:46:50.317Z,34.85
2022-12-01T23:49:20.583Z,35.10
2022-12-01T23:51:52.280Z,36.83
2022-12-01T23:54:25.220Z,35.55
2022-12-01T23:56:57.950Z,38.90
2022-12-01T23:59:25.439Z,35.88
